createdAt,value
2022-09-23T00:01:29.494Z,7.90
2022-09-23T00:04:02.941Z,7.30
2022-09-23T00:06:34.119Z,7.28
2022-09-23T00:09:08.693Z,7.28
2022-09-23T00:11:39.071Z,7.47
2022-09-23T00:14:13.469Z,7.70
2022-09-23T00:16:42.265Z,6.70
2022-09-23T00:19:13.515Z,7.68
2022-09-23T00:21:42.950Z,7.35
2022-09-23T00:24:11.466Z,7.22
2022-09-23T00:26:48.787Z,7.45
2022-09-23T00:29:21.831Z,7.03
2022-09-23T00:31:50.212Z,5.90
2022-09-23T00:34:24.300Z,6.93
2022-09-23T00:36:54.876Z,6.35
2022-09-23T00:39:23.262Z,7.30
2022-09-23T00:41:51.961Z,7.10
2022-09-23T00:44:46.349Z,7.82
2022-09-23T00:47:23.190Z,7.67
2022-09-23T00:50:02.350Z,7.70
2022-09-23T00:52:32.960Z,7.43
2022-09-23T00:55:05.658Z,6.93
2022-09-23T00:57:40.477Z,7.43
2022-09-23T01:00:13.479Z,7.75
2022-09-23T01:02:42.511Z,6.90
2022-09-23T01:05:19.017Z,6.07
2022-09-23T01:07:50.984Z,7.32
2022-09-23T01:10:27.229Z,7.43
2022-09-23T01:13:08.722Z,7.45
2022-09-23T01:15:42.957Z,6.97
2022-09-23T01:18:22.435Z,7.97
2022-09-23T01:21:03.647Z,6.47
2022-09-23T01:24:18.089Z,6.75
2022-09-23T01:27:13.930Z,6.50
2022-09-23T01:30:14.702Z,8.52
2022-09-23T01:33:14.934Z,7.40
2022-09-23T01:35:56.721Z,9.07
2022-09-23T01:38:37.879Z,8.27
2022-09-23T01:41:15.561Z,8.70
2022-09-23T01:43:53.192Z,9.02
2022-09-23T01:46:33.953Z,9.38
2022-09-23T01:49:09.162Z,9.82
2022-09-23T01:51:45.589Z,9.63
2022-09-23T01:54:18.471Z,8.57
2022-09-23T01:56:55.536Z,8.68
2022-09-23T01:59:33.214Z,8.45
2022-09-23T02:02:08.281Z,9.10
2022-09-23T02:04:51.569Z,9.00
2022-09-23T02:07:28.656Z,8.30
2022-09-23T02:10:02.457Z,8.48
2022-09-23T02:15:08.396Z,7.68
2022-09-23T02:17:44.118Z,7.43
2022-09-23T02:20:15.962Z,7.10
2022-09-23T02:22:58.251Z,8.23
2022-09-23T02:25:35.123Z,6.45
2022-09-23T02:28:10.154Z,7.05
2022-09-23T02:30:46.881Z,7.18
2022-09-23T02:33:23.182Z,7.13
2022-09-23T02:35:59.517Z,7.25
2022-09-23T02:38:44.652Z,7.15
2022-09-23T02:41:20.202Z,7.20
2022-09-23T02:43:57.915Z,6.18
2022-09-23T02:46:26.621Z,6.93
2022-09-23T02:49:01.069Z,6.88
2022-09-23T02:51:38.010Z,6.82
2022-09-23T02:54:22.308Z,6.72
2022-09-23T02:56:51.004Z,6.88
2022-09-23T02:59:20.352Z,6.93
2022-09-23T03:01:58.688Z,6.70
2022-09-23T03:04:39.424Z,6.68
2022-09-23T03:07:21.114Z,6.78
2022-09-23T03:09:56.307Z,7.35
2022-09-23T03:12:50.254Z,7.15
2022-09-23T03:15:29.918Z,6.70
2022-09-23T03:18:06.119Z,6.05
2022-09-23T03:20:43.847Z,6.50
2022-09-23T03:23:19.176Z,6.32
2022-09-23T03:25:53.157Z,5.70
2022-09-23T03:28:22.943Z,7.40
2022-09-23T03:30:55.129Z,7.25
2022-09-23T03:33:30.599Z,6.53
2022-09-23T03:36:23.558Z,6.72
2022-09-23T03:39:03.950Z,7.05
2022-09-23T03:41:45.712Z,7.43
2022-09-23T03:44:15.699Z,6.95
2022-09-23T03:46:50.007Z,7.10
2022-09-23T03:49:27.409Z,7.15
2022-09-23T03:52:01.200Z,7.03
2022-09-23T03:54:34.142Z,7.03
2022-09-23T03:57:08.120Z,7.45
2022-09-23T03:59:39.688Z,7.78
2022-09-23T04:02:09.623Z,5.78
2022-09-23T04:04:39.083Z,6.68
2022-09-23T04:07:08.331Z,7.53
2022-09-23T04:09:39.797Z,7.57
2022-09-23T04:12:16.207Z,7.20
2022-09-23T04:14:51.991Z,7.47
2022-09-23T04:17:26.992Z,6.53
2022-09-23T04:19:57.831Z,7.13
2022-09-23T04:22:26.303Z,6.97
2022-09-23T04:25:00.426Z,7.03
2022-09-23T04:27:37.478Z,6.88
2022-09-23T04:30:09.295Z,6.53
2022-09-23T04:33:06.599Z,5.80
2022-09-23T04:35:40.352Z,5.25
2022-09-23T04:38:12.836Z,5.68
2022-09-23T04:40:44.335Z,6.32
2022-09-23T04:43:15.985Z,6.10
2022-09-23T04:45:48.039Z,6.68
2022-09-23T04:48:19.384Z,5.18
2022-09-23T04:50:51.717Z,5.72
2022-09-23T04:53:21.439Z,5.53
2022-09-23T04:55:56.916Z,5.40
2022-09-23T04:58:31.647Z,4.43
2022-09-23T05:01:05.210Z,4.75
2022-09-23T05:03:43.343Z,4.82
2022-09-23T05:06:15.961Z,4.10
2022-09-23T05:08:55.531Z,5.00
2022-09-23T05:11:27.520Z,4.80
2022-09-23T05:14:02.278Z,4.47
2022-09-23T05:16:36.091Z,4.30
2022-09-23T05:19:04.901Z,4.80
2022-09-23T05:21:45.967Z,3.88
2022-09-23T05:24:19.407Z,3.63
2022-09-23T05:26:54.686Z,3.55
2022-09-23T05:29:23.170Z,4.35
2022-09-23T05:31:54.340Z,3.50
2022-09-23T05:34:25.301Z,3.35
2022-09-23T05:37:00.209Z,4.07
2022-09-23T05:39:29.182Z,3.83
2022-09-23T05:42:03.397Z,3.90
2022-09-23T05:44:33.051Z,3.80
2022-09-23T05:47:04.760Z,3.65
2022-09-23T05:49:57.988Z,3.63
2022-09-23T05:52:26.123Z,3.60
2022-09-23T05:55:07.646Z,3.88
2022-09-23T05:57:40.214Z,3.78
2022-09-23T06:00:25.805Z,3.35
2022-09-23T06:02:56.718Z,3.65
2022-09-23T06:05:33.911Z,4.45
2022-09-23T06:08:03.932Z,3.85
2022-09-23T06:10:32.444Z,3.83
2022-09-23T06:13:11.550Z,3.75
2022-09-23T06:15:44.631Z,4.22
2022-09-23T06:18:16.250Z,3.83
2022-09-23T06:20:51.024Z,3.97
2022-09-23T06:23:22.315Z,3.88
2022-09-23T06:25:52.303Z,4.05
2022-09-23T06:28:32.479Z,4.35
2022-09-23T06:31:12.285Z,4.25
2022-09-23T06:33:43.092Z,3.65
2022-09-23T06:36:12.640Z,2.78
2022-09-23T06:38:41.990Z,4.38
2022-09-23T06:41:12.802Z,4.45
2022-09-23T06:43:43.935Z,4.50
2022-09-23T06:46:15.874Z,4.40
2022-09-23T06:48:46.354Z,4.80
2022-09-23T06:51:20.344Z,4.15
2022-09-23T06:53:55.713Z,5.07
2022-09-23T06:56:37.981Z,3.63
2022-09-23T06:59:18.720Z,5.07
2022-09-23T07:01:51.085Z,4.13
2022-09-23T07:04:25.044Z,4.93
2022-09-23T07:06:57.279Z,4.40
2022-09-23T07:09:29.351Z,3.90
2022-09-23T07:12:02.996Z,5.40
2022-09-23T07:14:36.836Z,5.18
2022-09-23T07:17:09.967Z,6.60
2022-09-23T07:19:38.425Z,5.10
2022-09-23T07:22:08.074Z,5.50
2022-09-23T07:24:39.141Z,5.72
2022-09-23T07:27:07.760Z,4.38
2022-09-23T07:29:46.074Z,4.47
2022-09-23T07:32:25.581Z,5.28
2022-09-23T07:34:58.383Z,4.15
2022-09-23T07:37:41.246Z,5.20
2022-09-23T07:40:14.875Z,5.50
2022-09-23T07:42:45.668Z,5.32
2022-09-23T07:45:25.189Z,4.60
2022-09-23T07:47:55.425Z,5.43
2022-09-23T07:50:25.946Z,5.05
2022-09-23T07:53:03.133Z,3.85
2022-09-23T07:55:32.309Z,5.53
2022-09-23T07:58:01.840Z,4.43
2022-09-23T08:00:33.885Z,4.72
2022-09-23T08:03:03.038Z,4.55
2022-09-23T08:05:32.092Z,4.22
2022-09-23T08:08:03.060Z,4.60
2022-09-23T08:10:34.541Z,5.07
2022-09-23T08:13:03.645Z,3.30
2022-09-23T08:15:34.494Z,2.72
2022-09-23T08:18:05.953Z,3.35
2022-09-23T08:20:47.967Z,4.47
2022-09-23T08:23:20.598Z,3.97
2022-09-23T08:25:52.945Z,4.30
2022-09-23T08:28:22.113Z,3.83
2022-09-23T08:30:58.599Z,4.63
2022-09-23T08:33:36.365Z,2.88
2022-09-23T08:36:09.170Z,3.67
2022-09-23T08:38:37.644Z,5.38
2022-09-23T08:41:19.658Z,5.50
2022-09-23T08:43:51.007Z,5.07
2022-09-23T08:46:29.511Z,5.13
2022-09-23T08:49:03.523Z,4.68
2022-09-23T08:51:40.314Z,2.70
2022-09-23T08:54:22.064Z,3.20
2022-09-23T08:56:57.319Z,4.28
2022-09-23T08:59:33.456Z,4.15
2022-09-23T09:02:10.662Z,3.70
2022-09-23T09:04:47.323Z,4.10
2022-09-23T09:07:37.112Z,4.25
2022-09-23T09:10:13.597Z,4.25
2022-09-23T09:12:47.654Z,4.43
2022-09-23T09:15:24.617Z,4.03
2022-09-23T09:18:16.612Z,3.15
2022-09-23T09:20:51.743Z,3.28
2022-09-23T09:23:30.314Z,3.03
2022-09-23T09:26:00.823Z,2.95
2022-09-23T09:28:35.914Z,2.63
2022-09-23T09:31:15.532Z,3.03
2022-09-23T09:33:54.571Z,2.45
2022-09-23T09:36:37.858Z,2.75
2022-09-23T09:39:10.140Z,2.63
2022-09-23T09:41:39.664Z,2.45
2022-09-23T09:44:18.682Z,2.72
2022-09-23T09:47:02.114Z,2.55
2022-09-23T09:49:44.316Z,2.55
2022-09-23T09:52:23.880Z,2.60
2022-09-23T09:54:53.233Z,2.58
2022-09-23T09:57:35.254Z,2.72
2022-09-23T10:00:40.056Z,3.50
2022-09-23T10:03:27.930Z,3.30
2022-09-23T10:06:02.554Z,2.97
2022-09-23T10:14:06.919Z,2.70
2022-09-23T10:16:40.142Z,2.63
2022-09-23T10:19:35.230Z,3.58
2022-09-23T10:22:21.944Z,3.35
2022-09-23T10:24:57.053Z,3.17
2022-09-23T10:27:36.869Z,3.33
2022-09-23T10:30:12.173Z,3.42
2022-09-23T10:32:48.156Z,3.28
2022-09-23T10:35:28.584Z,4.45
2022-09-23T10:38:05.079Z,3.88
2022-09-23T10:40:56.542Z,3.38
2022-09-23T10:43:50.188Z,3.17
2022-09-23T10:46:38.508Z,3.03
2022-09-23T10:49:33.190Z,3.20
2022-09-23T10:52:19.114Z,2.78
2022-09-23T10:55:01.044Z,3.05
2022-09-23T10:57:46.460Z,3.53
2022-09-23T11:00:29.277Z,3.22
2022-09-23T11:03:24.640Z,4.03
2022-09-23T11:06:04.112Z,3.03
2022-09-23T11:08:52.216Z,3.40
2022-09-23T11:11:36.488Z,2.70
2022-09-23T11:14:25.558Z,2.00
2022-09-23T11:17:15.134Z,3.17
2022-09-23T11:20:12.134Z,2.72
2022-09-23T11:23:00.864Z,3.20
2022-09-23T11:25:46.051Z,2.45
2022-09-23T11:28:54.621Z,2.00
2022-09-23T11:31:32.024Z,2.40
2022-09-23T11:34:20.275Z,1.90
2022-09-23T11:36:55.227Z,2.63
2022-09-23T11:39:36.884Z,2.33
2022-09-23T11:42:12.986Z,2.53
2022-09-23T11:44:51.248Z,2.72
2022-09-23T11:47:26.399Z,2.72
2022-09-23T11:50:12.826Z,2.40
2022-09-23T11:52:47.689Z,2.53
2022-09-23T11:55:23.404Z,1.90
2022-09-23T11:58:03.744Z,2.40
2022-09-23T12:00:51.968Z,2.60
2022-09-23T12:03:40.756Z,2.40
2022-09-23T12:06:17.398Z,1.92
2022-09-23T12:09:06.632Z,2.30
2022-09-23T12:11:55.946Z,2.20
2022-09-23T12:14:33.937Z,2.58
2022-09-23T12:17:30.365Z,2.40
2022-09-23T12:20:10.934Z,2.60
2022-09-23T12:22:50.597Z,2.65
2022-09-23T12:25:56.573Z,2.55
2022-09-23T12:28:27.635Z,2.90
2022-09-23T12:31:02.127Z,2.35
2022-09-23T12:36:15.779Z,2.85
2022-09-23T12:38:55.739Z,2.33
2022-09-23T12:41:30.224Z,2.75
2022-09-23T12:44:11.044Z,1.75
2022-09-23T12:46:42.689Z,2.53
2022-09-23T12:49:37.405Z,2.58
2022-09-23T12:52:27.440Z,2.40
2022-09-23T12:55:00.049Z,3.13
2022-09-23T12:57:42.919Z,2.33
2022-09-23T13:00:33.525Z,2.67
2022-09-23T13:03:40.761Z,3.28
2022-09-23T13:06:29.924Z,2.95
2022-09-23T13:08:58.374Z,2.83
2022-09-23T13:11:35.961Z,3.53
2022-09-23T13:14:17.659Z,3.35
2022-09-23T13:16:47.933Z,3.47
2022-09-23T13:19:44.988Z,2.65
2022-09-23T13:22:20.945Z,3.70
2022-09-23T13:24:56.615Z,3.65
2022-09-23T13:27:35.432Z,2.92
2022-09-23T13:30:26.321Z,3.40
2022-09-23T13:33:08.957Z,4.13
2022-09-23T13:35:51.284Z,3.83
2022-09-23T13:38:33.048Z,3.83
2022-09-23T13:41:06.263Z,3.55
2022-09-23T13:43:42.321Z,4.07
2022-09-23T13:46:20.297Z,3.15
2022-09-23T13:48:55.687Z,3.63
2022-09-23T13:51:30.461Z,3.60
2022-09-23T13:56:50.430Z,2.85
2022-09-23T13:59:30.356Z,3.50
2022-09-23T14:02:18.851Z,3.63
2022-09-23T14:04:50.496Z,3.63
2022-09-23T14:07:21.546Z,4.10
2022-09-23T14:09:59.629Z,2.83
2022-09-23T14:12:33.311Z,3.10
2022-09-23T14:15:19.689Z,3.58
2022-09-23T14:17:52.110Z,3.30
2022-09-23T14:20:24.361Z,2.67
2022-09-23T14:23:09.449Z,2.90
2022-09-23T14:25:39.475Z,2.72
2022-09-23T14:28:15.609Z,2.65
2022-09-23T14:30:50.866Z,2.78
2022-09-23T14:33:23.223Z,1.83
2022-09-23T14:36:14.634Z,2.60
2022-09-23T14:38:55.747Z,2.20
2022-09-23T14:41:27.298Z,3.00
2022-09-23T14:44:03.315Z,2.53
2022-09-23T14:46:40.190Z,2.70
2022-09-23T14:49:20.398Z,2.42
2022-09-23T14:51:55.686Z,2.50
2022-09-23T14:54:56.488Z,1.88
2022-09-23T14:57:32.568Z,2.55
2022-09-23T15:00:14.081Z,1.80
2022-09-23T15:02:47.434Z,2.17
2022-09-23T15:05:23.686Z,2.60
2022-09-23T15:08:07.358Z,2.67
2022-09-23T15:10:39.191Z,2.75
2022-09-23T15:13:19.911Z,2.72
2022-09-23T15:15:55.216Z,3.50
2022-09-23T15:18:31.140Z,3.30
2022-09-23T15:21:07.189Z,2.00
2022-09-23T15:23:44.696Z,2.38
2022-09-23T15:26:20.807Z,3.25
2022-09-23T15:28:56.133Z,3.00
2022-09-23T15:31:28.245Z,2.50
2022-09-23T15:34:06.221Z,2.15
2022-09-23T15:36:35.177Z,3.13
2022-09-23T15:39:09.183Z,2.45
2022-09-23T15:41:42.470Z,2.90
2022-09-23T15:44:18.830Z,3.20
2022-09-23T15:46:51.507Z,2.60
2022-09-23T15:49:28.145Z,3.30
2022-09-23T15:52:02.959Z,3.60
2022-09-23T15:54:34.731Z,3.38
2022-09-23T15:59:50.676Z,2.58
2022-09-23T16:02:25.505Z,2.65
2022-09-23T16:04:55.939Z,3.00
2022-09-23T16:07:26.836Z,2.47
2022-09-23T16:10:01.207Z,3.20
2022-09-23T16:12:36.694Z,2.90
2022-09-23T16:15:12.851Z,3.17
2022-09-23T16:17:46.205Z,2.67
2022-09-23T16:20:25.344Z,2.03
2022-09-23T16:22:58.279Z,2.75
2022-09-23T16:25:38.142Z,2.55
2022-09-23T16:28:13.491Z,2.20
2022-09-23T16:30:46.392Z,3.13
2022-09-23T16:33:14.972Z,3.65
2022-09-23T16:35:49.683Z,3.58
2022-09-23T16:38:21.282Z,2.13
2022-09-23T16:41:20.893Z,3.15
2022-09-23T16:43:56.471Z,2.60
2022-09-23T16:46:36.893Z,2.95
2022-09-23T16:49:15.083Z,3.28
2022-09-23T16:51:58.285Z,3.20
2022-09-23T16:54:51.440Z,3.15
2022-09-23T16:57:24.301Z,2.45
2022-09-23T17:00:19.174Z,3.30
2022-09-23T17:04:54.531Z,3.22
2022-09-23T17:06:59.302Z,3.17
2022-09-23T17:09:36.508Z,2.72
2022-09-23T17:12:21.887Z,3.20
2022-09-23T17:14:54.915Z,3.40
2022-09-23T17:17:23.834Z,3.30
2022-09-23T17:19:59.933Z,3.55
2022-09-23T17:22:39.241Z,3.20
2022-09-23T17:25:11.174Z,3.13
2022-09-23T17:27:45.070Z,3.00
2022-09-23T17:33:08.293Z,3.00
2022-09-23T17:35:45.501Z,2.97
2022-09-23T17:38:19.216Z,2.20
2022-09-23T17:40:54.585Z,2.60
2022-09-23T17:43:26.059Z,3.20
2022-09-23T17:46:05.324Z,3.78
2022-09-23T17:48:37.907Z,3.47
2022-09-23T17:51:28.270Z,2.78
2022-09-23T17:54:22.056Z,3.30
2022-09-23T17:57:01.713Z,3.90
2022-09-23T17:59:32.978Z,3.45
2022-09-23T18:02:09.817Z,3.50
2022-09-23T18:04:57.811Z,3.40
2022-09-23T18:07:30.091Z,3.88
2022-09-23T18:10:01.911Z,3.60
2022-09-23T18:12:36.386Z,3.78
2022-09-23T18:15:22.134Z,3.00
2022-09-23T18:17:52.367Z,3.30
2022-09-23T18:20:23.978Z,3.10
2022-09-23T18:22:57.374Z,2.10
2022-09-23T18:25:39.330Z,3.78
2022-09-23T18:28:11.033Z,3.17
2022-09-23T18:30:40.302Z,3.78
2022-09-23T18:33:14.106Z,2.53
2022-09-23T18:35:44.206Z,4.00
2022-09-23T18:38:14.733Z,4.40
2022-09-23T18:41:13.733Z,3.75
2022-09-23T18:43:51.520Z,4.40
2022-09-23T18:46:32.700Z,4.07
2022-09-23T18:49:19.843Z,3.40
2022-09-23T18:51:53.247Z,2.75
2022-09-23T18:54:24.282Z,3.83
2022-09-23T18:56:57.045Z,3.80
2022-09-23T18:59:29.897Z,4.00
2022-09-23T19:02:00.219Z,3.72
2022-09-23T19:04:31.713Z,3.80
2022-09-23T19:07:11.754Z,3.92
2022-09-23T19:09:44.334Z,3.88
2022-09-23T19:12:15.342Z,4.40
2022-09-23T19:14:44.979Z,4.40
2022-09-23T19:17:17.469Z,5.03
2022-09-23T19:19:48.493Z,4.32
2022-09-23T19:22:17.250Z,4.30
2022-09-23T19:24:47.240Z,4.75
2022-09-23T19:27:18.518Z,4.88
2022-09-23T19:29:47.577Z,4.38
2022-09-23T19:32:17.872Z,4.05
2022-09-23T19:34:46.482Z,4.90
2022-09-23T19:37:24.205Z,4.38
2022-09-23T19:39:59.141Z,5.18
2022-09-23T19:42:30.143Z,3.97
2022-09-23T19:45:03.760Z,5.00
2022-09-23T19:47:32.732Z,3.88
2022-09-23T19:50:07.593Z,4.47
2022-09-23T19:52:36.146Z,4.35
2022-09-23T19:55:07.688Z,3.85
2022-09-23T19:57:41.342Z,4.32
2022-09-23T20:00:16.642Z,4.70
2022-09-23T20:02:46.297Z,4.95
2022-09-23T20:05:20.569Z,5.53
2022-09-23T20:07:49.229Z,4.25
2022-09-23T20:10:19.497Z,4.57
2022-09-23T20:12:50.647Z,5.07
2022-09-23T20:15:26.153Z,4.97
2022-09-23T20:18:03.455Z,5.13
2022-09-23T20:20:35.402Z,4.82
2022-09-23T20:23:08.302Z,4.32
2022-09-23T20:25:52.303Z,5.20
2022-09-23T20:28:22.750Z,5.95
2022-09-23T20:30:54.791Z,4.28
2022-09-23T20:33:23.687Z,4.35
2022-09-23T20:35:55.789Z,4.60
2022-09-23T20:38:28.125Z,5.28
2022-09-23T20:40:59.195Z,6.00
2022-09-23T20:43:38.576Z,5.60
2022-09-23T20:46:10.474Z,4.43
2022-09-23T20:48:41.501Z,5.30
2022-09-23T20:51:13.671Z,5.78
2022-09-23T20:53:43.698Z,5.60
2022-09-23T20:56:16.937Z,6.03
2022-09-23T20:58:48.804Z,5.97
2022-09-23T21:01:20.836Z,5.50
2022-09-23T21:03:56.105Z,5.82
2022-09-23T21:06:26.766Z,6.65
2022-09-23T21:08:57.756Z,5.63
2022-09-23T21:11:34.143Z,6.53
2022-09-23T21:14:13.625Z,5.43
2022-09-23T21:16:47.413Z,5.35
2022-09-23T21:19:17.475Z,5.95
2022-09-23T21:21:48.812Z,6.78
2022-09-23T21:24:53.254Z,7.18
2022-09-23T21:27:18.877Z,6.70
2022-09-23T21:29:49.721Z,6.07
2022-09-23T21:32:18.225Z,7.15
2022-09-23T21:34:54.715Z,6.40
2022-09-23T21:37:26.847Z,6.47
2022-09-23T21:40:10.895Z,5.15
2022-09-23T21:42:40.975Z,5.53
2022-09-23T21:45:13.329Z,6.00
2022-09-23T21:47:44.390Z,6.13
2022-09-23T21:50:13.224Z,5.97
2022-09-23T21:52:50.534Z,7.07
2022-09-23T21:55:31.666Z,5.82
2022-09-23T21:58:01.614Z,6.68
2022-09-23T22:00:30.312Z,6.60
2022-09-23T22:03:03.370Z,6.32
2022-09-23T22:05:34.214Z,6.82
2022-09-23T22:08:06.001Z,6.55
2022-09-23T22:10:37.406Z,6.22
2022-09-23T22:13:13.150Z,6.40
2022-09-23T22:15:46.438Z,7.50
2022-09-23T22:18:14.925Z,6.63
2022-09-23T22:20:47.750Z,7.88
2022-09-23T22:23:21.049Z,7.43
2022-09-23T22:26:03.215Z,7.57
2022-09-23T22:28:56.506Z,7.47
2022-09-23T22:31:42.332Z,7.63
2022-09-23T22:34:31.052Z,7.63
2022-09-23T22:37:06.314Z,7.25
2022-09-23T22:39:36.916Z,5.45
2022-09-23T22:42:08.371Z,8.57
2022-09-23T22:44:44.024Z,7.65
2022-09-23T22:47:15.714Z,7.95
2022-09-23T22:49:47.622Z,7.43
2022-09-23T22:52:23.884Z,7.72
2022-09-23T22:55:01.860Z,8.27
2022-09-23T22:58:30.710Z,7.43
2022-09-23T23:01:02.690Z,7.70
2022-09-23T23:03:42.986Z,7.95
2022-09-23T23:06:16.597Z,7.85
2022-09-23T23:08:51.949Z,8.13
2022-09-23T23:11:21.796Z,8.63
2022-09-23T23:13:55.169Z,6.97
2022-09-23T23:16:38.422Z,7.40
2022-09-23T23:19:09.663Z,4.97
2022-09-23T23:21:54.655Z,6.03
2022-09-23T23:24:26.208Z,6.22
2022-09-23T23:26:56.645Z,6.47
2022-09-23T23:29:25.351Z,5.75
2022-09-23T23:31:59.244Z,6.65
2022-09-23T23:34:28.056Z,5.78
2022-09-23T23:37:01.169Z,6.22
2022-09-23T23:39:33.114Z,5.95
2022-09-23T23:42:01.785Z,5.72
2022-09-23T23:44:34.582Z,6.25
2022-09-23T23:47:05.430Z,6.00
2022-09-23T23:49:39.498Z,5.50
2022-09-23T23:52:12.963Z,5.80
2022-09-23T23:54:43.364Z,5.47
2022-09-23T23:57:14.888Z,5.43
2022-09-23T23:59:47.696Z,5.40
